Ely, MN

6:27 AM CDT on May 27, 2017 (GMT -0500)
Ely Municipal

Weather History for KELO - January, 2014

Change the Weather History Date:

Tuesday, January 7, 2014

  Actual Average Record
Temperature  
Mean Temperature -17 °F -  
Max Temperature -9 °F 15 °F 46 °F (2003)
Min Temperature -25 °F 0 °F -25 °F (2014)
Degree Days  
Heating Degree Days 82    
Moisture  
Dew Point -24 °F    
Average Humidity 73    
Maximum Humidity 84    
Minimum Humidity 59    
Precipitation  
Precipitation 0.00 in - - ()
Sea Level Pressure  
Sea Level Pressure 29.95 in    
Wind  
Wind Speed 8 mph (West)    
Max Wind Speed 13 mph    
Max Gust Speed 20 mph    
Visibility 10 miles    
Events      
Averages and records for this station are not official NWS values.
T = Trace of Precipitation, MM = Missing Value Source: NWS Daily Summary

Daily Weather History Graph

Daily Weather History Graph

Search for Another Location

Airport or City:

Trip Planner

Search our weather history database for the weather conditions in past years. The results will help you decide how hot, cold, wet, or windy it might be!

Date:

Astronomy

Jan. 07, 2014 Rise Set
Actual Time 7:55 AM CST 4:32 PM CST
Civil Twilight 7:19 AM CST 5:07 PM CST
Nautical Twilight 6:40 AM CST 5:46 PM CST
Astronomical Twilight 6:03 AM CST 6:24 PM CST
Moon 11:11 AM CST (1/7) No Moon Set
Length of Visible Light 9h 47m
Length of Day
8h 36m
Waxing Crescent, 46% of the Moon is Illuminated
Jan 7
Waxing Crescent
Jan 7
First Quarter
Jan 15
Full
Jan 23
Last Quarter
Jan 30
New

Hourly Weather History & Observations

Time (CST) Temp. Windchill Dew Point Humidity Pressure Visibility Wind Dir Wind Speed Gust Speed Precip Events Conditions
12:13 AM -25.6 °F -43.8 °F -32.8 °F 69% 29.86 in 10.0 mi West 6.9 mph - N/A   Clear
12:32 AM -25.6 °F -45.4 °F -32.8 °F 69% 29.86 in 10.0 mi West 8.1 mph - N/A   Clear
12:53 AM -25.6 °F -48.0 °F -32.8 °F 69% 29.87 in 10.0 mi West 10.4 mph - N/A   Clear
1:12 AM -25.6 °F -48.0 °F -32.8 °F 69% 29.87 in 7.0 mi West 10.4 mph - N/A   Clear
1:33 AM -25.6 °F -45.4 °F -32.8 °F 69% 29.87 in 7.0 mi West 8.1 mph - N/A   Clear
1:52 AM -25.6 °F -46.8 °F -32.8 °F 69% 29.87 in 10.0 mi West 9.2 mph - N/A   Clear
2:13 AM -25.6 °F -46.8 °F -32.8 °F 69% 29.88 in 10.0 mi West 9.2 mph - N/A   Mostly Cloudy
2:33 AM -25.6 °F -46.8 °F -31.0 °F 76% 29.87 in 10.0 mi West 9.2 mph - N/A   Overcast
2:52 AM -23.8 °F -44.5 °F -31.0 °F 69% 29.88 in 10.0 mi West 9.2 mph - N/A   Overcast
3:13 AM -23.8 °F -48.0 °F -29.2 °F 76% 29.88 in 10.0 mi West 12.7 mph 17.3 mph N/A   Overcast
3:33 AM -23.8 °F -43.2 °F -29.2 °F 76% 29.87 in 10.0 mi West 8.1 mph - N/A   Overcast
3:52 AM -23.8 °F -43.2 °F -29.2 °F 76% 29.87 in 10.0 mi West 8.1 mph - N/A   Overcast
4:13 AM -23.8 °F -44.5 °F -29.2 °F 76% 29.87 in 10.0 mi West 9.2 mph - N/A   Overcast
4:33 AM -23.8 °F -41.6 °F -29.2 °F 76% 29.87 in 10.0 mi West 6.9 mph - N/A   Overcast
4:52 AM -23.8 °F -44.5 °F -27.4 °F 83% 29.87 in 10.0 mi West 9.2 mph - N/A   Overcast
5:13 AM -23.8 °F -44.5 °F -29.2 °F 76% 29.86 in 10.0 mi West 9.2 mph - N/A   Mostly Cloudy
5:32 AM -23.8 °F -43.2 °F -29.2 °F 76% 29.86 in 10.0 mi West 8.1 mph - N/A   Scattered Clouds
5:53 AM -25.6 °F -45.4 °F -31.0 °F 76% 29.86 in 10.0 mi West 8.1 mph - N/A   Clear
6:13 AM -25.6 °F -41.9 °F -31.0 °F 76% 29.86 in 10.0 mi West 5.8 mph - N/A   Scattered Clouds
6:32 AM -23.8 °F -37.7 °F -29.2 °F 76% 29.87 in 10.0 mi West 4.6 mph - N/A   Overcast
6:53 AM -23.8 °F -39.8 °F -27.4 °F 83% 29.87 in 10.0 mi West 5.8 mph - N/A   Overcast
7:13 AM -22.0 °F -37.7 °F -27.4 °F 76% 29.87 in 7.0 mi West 5.8 mph - N/A   Overcast
7:32 AM -22.0 °F -35.6 °F -27.4 °F 76% 29.88 in 10.0 mi West 4.6 mph - N/A   Overcast
7:53 AM -22.0 °F -39.4 °F -27.4 °F 76% 29.89 in 10.0 mi West 6.9 mph - N/A   Mostly Cloudy
8:12 AM -22.0 °F -39.4 °F -27.4 °F 76% 29.89 in 7.0 mi West 6.9 mph - N/A   Scattered Clouds
8:33 AM -22.0 °F -39.4 °F -27.4 °F 76% 29.90 in 10.0 mi West 6.9 mph - N/A   Clear
8:53 AM -22.0 °F -41.0 °F -27.4 °F 76% 29.91 in 10.0 mi West 8.1 mph - N/A   Clear
9:12 AM -20.2 °F -38.8 °F -27.4 °F 69% 29.92 in 10.0 mi West 8.1 mph - N/A   Clear
9:32 AM -18.4 °F -35.1 °F -25.6 °F 70% 29.92 in 5.0 mi West 6.9 mph - N/A   Haze
9:53 AM -18.4 °F -36.6 °F -25.6 °F 70% 29.92 in 5.0 mi West 8.1 mph - N/A   Haze
10:12 AM -18.4 °F -40.2 °F -25.6 °F 70% 29.93 in 10.0 mi West 11.5 mph 19.6 mph N/A   Mostly Cloudy
10:32 AM -16.6 °F -37.9 °F -25.6 °F 64% 29.93 in 7.0 mi WNW 11.5 mph 17.3 mph N/A   Scattered Clouds
10:53 AM -16.6 °F -35.7 °F -25.6 °F 64% 29.93 in 5.0 mi West 9.2 mph - N/A   Haze
11:12 AM -16.6 °F -37.9 °F -25.6 °F 64% 29.93 in 7.0 mi WNW 11.5 mph - N/A   Clear
11:33 AM -14.8 °F -30.8 °F -23.8 °F 64% 29.93 in 10.0 mi West 6.9 mph - N/A   Clear
11:53 AM -14.8 °F -35.6 °F -23.8 °F 64% 29.93 in 10.0 mi West 11.5 mph - N/A   Clear
12:12 PM -13.0 °F -31.3 °F -23.8 °F 59% 29.94 in 10.0 mi WNW 9.2 mph - N/A   Clear
12:33 PM -11.2 °F -26.4 °F -22.0 °F 59% 29.94 in 10.0 mi West 6.9 mph - N/A   Scattered Clouds
12:53 PM -11.2 °F -29.0 °F -20.2 °F 64% 29.93 in 10.0 mi NW 9.2 mph 16.1 mph N/A   Scattered Clouds
1:12 PM -11.2 °F -30.1 °F -20.2 °F 64% 29.94 in 10.0 mi WNW 10.4 mph - N/A   Clear
1:33 PM -9.4 °F -26.8 °F -20.2 °F 59% 29.94 in 10.0 mi WNW 9.2 mph - N/A   Clear
1:53 PM -9.4 °F -24.3 °F -20.2 °F 59% 29.95 in 10.0 mi WNW 6.9 mph - N/A   Clear
2:13 PM -9.4 °F -26.8 °F -18.4 °F 65% 29.96 in 10.0 mi West 9.2 mph - N/A   Scattered Clouds
2:32 PM -9.4 °F -26.8 °F -18.4 °F 65% 29.97 in 10.0 mi West 9.2 mph - N/A   Mostly Cloudy
2:53 PM -9.4 °F -26.8 °F -18.4 °F 65% 29.98 in 10.0 mi West 9.2 mph - N/A   Overcast
3:13 PM -9.4 °F -26.8 °F -18.4 °F 65% 29.98 in 10.0 mi West 9.2 mph - N/A   Overcast
3:32 PM -9.4 °F -27.9 °F -18.4 °F 65% 29.98 in 10.0 mi WSW 10.4 mph - N/A   Overcast
3:53 PM -9.4 °F -24.3 °F -16.6 °F 71% 29.98 in 10.0 mi West 6.9 mph - N/A   Overcast
4:13 PM -9.4 °F -24.3 °F -16.6 °F 71% 29.99 in 10.0 mi West 6.9 mph - N/A   Mostly Cloudy
4:32 PM -9.4 °F -24.3 °F -16.6 °F 71% 29.99 in 10.0 mi West 6.9 mph - N/A   Scattered Clouds
4:53 PM -11.2 °F -23.0 °F -16.6 °F 77% 30.00 in 10.0 mi West 4.6 mph - N/A   Clear
5:13 PM -11.2 °F -23.0 °F -16.6 °F 77% 30.00 in 10.0 mi WSW 4.6 mph - N/A   Clear
5:32 PM -11.2 °F -26.4 °F -16.6 °F 77% 30.01 in 10.0 mi West 6.9 mph - N/A   Clear
5:53 PM -11.2 °F -24.8 °F -16.6 °F 77% 30.01 in 10.0 mi WSW 5.8 mph - N/A   Clear
6:13 PM -11.2 °F -26.4 °F -16.6 °F 77% 30.01 in 10.0 mi West 6.9 mph - N/A   Clear
6:32 PM -11.2 °F -26.4 °F -16.6 °F 77% 30.01 in 10.0 mi West 6.9 mph - N/A   Clear
6:53 PM -11.2 °F -26.4 °F -16.6 °F 77% 30.02 in 10.0 mi West 6.9 mph - N/A   Clear
7:13 PM -11.2 °F -29.0 °F -16.6 °F 77% 30.02 in 10.0 mi West 9.2 mph - N/A   Clear
7:32 PM -11.2 °F -24.8 °F -16.6 °F 77% 30.03 in 10.0 mi West 5.8 mph - N/A   Clear
7:53 PM -11.2 °F -20.6 °F -16.6 °F 77% 30.04 in 10.0 mi West 3.5 mph - N/A   Clear
8:13 PM -11.2 °F -20.6 °F -16.6 °F 77% 30.05 in 10.0 mi West 3.5 mph - N/A   Clear
8:32 PM -11.2 °F -23.0 °F -16.6 °F 77% 30.05 in 10.0 mi West 4.6 mph - N/A   Clear
8:53 PM -13.0 °F -22.7 °F -18.4 °F 77% 30.06 in 10.0 mi West 3.5 mph - N/A   Clear
9:13 PM -14.8 °F -27.2 °F -18.4 °F 84% 30.07 in 10.0 mi West 4.6 mph - N/A   Clear
9:32 PM -14.8 °F -27.2 °F -18.4 °F 84% 30.07 in 10.0 mi West 4.6 mph - N/A   Clear
9:53 PM -14.8 °F -29.1 °F -18.4 °F 84% 30.07 in 10.0 mi West 5.8 mph - N/A   Clear
10:13 PM -14.8 °F -27.2 °F -18.4 °F 84% 30.08 in 10.0 mi West 4.6 mph - N/A   Clear
10:33 PM -14.8 °F -24.8 °F -18.4 °F 84% 30.08 in 10.0 mi West 3.5 mph - N/A   Clear
10:53 PM -14.8 °F - -20.2 °F 77% 30.08 in 10.0 mi Calm Calm - N/A   Clear
11:12 PM -16.6 °F - -20.2 °F 84% 30.08 in 10.0 mi Calm Calm - N/A   Clear
11:33 PM -20.2 °F - -23.8 °F 83% 30.09 in 10.0 mi Calm Calm - N/A   Clear
11:53 PM -20.2 °F -30.9 °F -25.6 °F 76% 30.10 in 10.0 mi SSW 3.5 mph - N/A   Clear